sensor_id;sensor_type;location;lat;lon;timestamp;pressure;altitude;pressure_sealevel;temperature;humidity
60820;BME280;46641;48.904;9.126;2023-03-23T00:04:44;97978.63;;;18.01;45.38
60820;BME280;46641;48.904;9.126;2023-03-23T00:09:34;97983.09;;;18.00;45.32
60820;BME280;46641;48.904;9.126;2023-03-23T00:14:32;97978.81;;;17.99;45.50
60820;BME280;46641;48.904;9.126;2023-03-23T00:19:31;97986.75;;;17.99;45.22
60820;BME280;46641;48.904;9.126;2023-03-23T00:24:22;97978.44;;;17.95;45.42
60820;BME280;46641;48.904;9.126;2023-03-23T00:29:18;97970.91;;;17.92;45.54
60820;BME280;46641;48.904;9.126;2023-03-23T00:34:11;97969.88;;;17.93;45.62
60820;BME280;46641;48.904;9.126;2023-03-23T00:39:03;97952.34;;;17.92;45.73
60820;BME280;46641;48.904;9.126;2023-03-23T00:43:57;97951.56;;;17.92;45.54
60820;BME280;46641;48.904;9.126;2023-03-23T00:48:50;97943.63;;;17.92;45.45
60820;BME280;46641;48.904;9.126;2023-03-23T00:53:41;97942.81;;;17.91;45.61
60820;BME280;46641;48.904;9.126;2023-03-23T00:58:31;97930.16;;;17.87;45.54
60820;BME280;46641;48.904;9.126;2023-03-23T01:03:22;97937.13;;;17.88;45.88
60820;BME280;46641;48.904;9.126;2023-03-23T01:08:15;97935.06;;;17.90;45.99
60820;BME280;46641;48.904;9.126;2023-03-23T01:13:07;97923.66;;;17.89;45.47
60820;BME280;46641;48.904;9.126;2023-03-23T01:17:57;97927.09;;;17.90;45.69
60820;BME280;46641;48.904;9.126;2023-03-23T01:22:48;97937.13;;;17.88;45.69
60820;BME280;46641;48.904;9.126;2023-03-23T01:27:39;97922.84;;;17.89;45.50
60820;BME280;46641;48.904;9.126;2023-03-23T01:32:29;97916.75;;;17.88;45.71
60820;BME280;46641;48.904;9.126;2023-03-23T01:37:20;97909.00;;;17.87;46.01
60820;BME280;46641;48.904;9.126;2023-03-23T01:42:16;97902.88;;;17.86;45.65
60820;BME280;46641;48.904;9.126;2023-03-23T01:47:07;97897.81;;;17.85;45.99
60820;BME280;46641;48.904;9.126;2023-03-23T01:52:01;97885.38;;;17.85;45.72
60820;BME280;46641;48.904;9.126;2023-03-23T01:56:56;97895.97;;;17.85;45.78
60820;BME280;46641;48.904;9.126;2023-03-23T02:01:49;97890.88;;;17.84;45.77
60820;BME280;46641;48.904;9.126;2023-03-23T02:06:43;97883.97;;;17.83;45.92
60820;BME280;46641;48.904;9.126;2023-03-23T02:11:34;97881.31;;;17.83;45.86
60820;BME280;46641;48.904;9.126;2023-03-23T02:16:34;97882.13;;;17.83;45.61
60820;BME280;46641;48.904;9.126;2023-03-23T02:31:55;97870.34;;;17.79;45.61
60820;BME280;46641;48.904;9.126;2023-03-23T02:36:59;97863.22;;;17.80;45.98
60820;BME280;46641;48.904;9.126;2023-03-23T02:42:08;97844.25;;;17.76;46.00
60820;BME280;46641;48.904;9.126;2023-03-23T02:47:00;97840.81;;;17.75;45.73
60820;BME280;46641;48.904;9.126;2023-03-23T02:51:53;97838.16;;;17.75;45.89
60820;BME280;46641;48.904;9.126;2023-03-23T02:56:46;97819.00;;;17.73;45.93
60820;BME280;46641;48.904;9.126;2023-03-23T03:06:47;97821.06;;;17.71;45.89
60820;BME280;46641;48.904;9.126;2023-03-23T03:11:46;97830.81;;;17.71;45.72
60820;BME280;46641;48.904;9.126;2023-03-23T03:17:03;97825.16;;;17.67;46.05
60820;BME280;46641;48.904;9.126;2023-03-23T03:21:56;97828.63;;;17.68;46.13
60820;BME280;46641;48.904;9.126;2023-03-23T03:26:50;97818.25;;;17.66;46.14
60820;BME280;46641;48.904;9.126;2023-03-23T03:31:42;97813.75;;;17.67;46.03
60820;BME280;46641;48.904;9.126;2023-03-23T03:36:36;97820.06;;;17.66;46.10
60820;BME280;46641;48.904;9.126;2023-03-23T03:41:27;97821.91;;;17.65;46.15
60820;BME280;46641;48.904;9.126;2023-03-23T03:46:17;97815.19;;;17.63;46.64
60820;BME280;46641;48.904;9.126;2023-03-23T03:51:08;97803.00;;;17.62;46.26
60820;BME280;46641;48.904;9.126;2023-03-23T03:55:58;97807.25;;;17.63;47.07
60820;BME280;46641;48.904;9.126;2023-03-23T04:00:49;97814.38;;;17.62;46.34
60820;BME280;46641;48.904;9.126;2023-03-23T04:05:40;97821.72;;;17.60;46.38
60820;BME280;46641;48.904;9.126;2023-03-23T04:10:31;97820.91;;;17.60;46.28
60820;BME280;46641;48.904;9.126;2023-03-23T04:15:22;97824.34;;;17.60;46.16
60820;BME280;46641;48.904;9.126;2023-03-23T04:20:13;97822.75;;;17.59;46.14
60820;BME280;46641;48.904;9.126;2023-03-23T04:25:07;97818.25;;;17.60;45.96
60820;BME280;46641;48.904;9.126;2023-03-23T04:30:00;97812.75;;;17.61;46.27
60820;BME280;46641;48.904;9.126;2023-03-23T04:34:51;97812.16;;;17.59;46.69
60820;BME280;46641;48.904;9.126;2023-03-23T04:39:41;97806.66;;;17.61;46.17
60820;BME280;46641;48.904;9.126;2023-03-23T04:44:35;97808.47;;;17.60;46.31
60820;BME280;46641;48.904;9.126;2023-03-23T04:49:25;97808.47;;;17.60;46.61
60820;BME280;46641;48.904;9.126;2023-03-23T04:54:16;97819.06;;;17.60;46.28
60820;BME280;46641;48.904;9.126;2023-03-23T04:59:07;97817.03;;;17.62;46.30
60820;BME280;46641;48.904;9.126;2023-03-23T05:03:57;97809.28;;;17.61;46.29
60820;BME280;46641;48.904;9.126;2023-03-23T05:08:48;97812.97;;;17.60;46.23
60820;BME280;46641;48.904;9.126;2023-03-23T05:13:38;97796.69;;;17.56;46.26
60820;BME280;46641;48.904;9.126;2023-03-23T05:18:29;97815.22;;;17.56;46.63
60820;BME280;46641;48.904;9.126;2023-03-23T05:23:19;97817.88;;;17.56;46.50
60820;BME280;46641;48.904;9.126;2023-03-23T05:28:10;97817.66;;;17.58;46.43
60820;BME280;46641;48.904;9.126;2023-03-23T05:33:02;97816.25;;;17.55;46.60
60820;BME280;46641;48.904;9.126;2023-03-23T05:37:53;97807.28;;;17.56;46.45
60820;BME280;46641;48.904;9.126;2023-03-23T05:42:43;97812.34;;;17.58;46.45
60820;BME280;46641;48.904;9.126;2023-03-23T05:47:35;97815.00;;;17.58;46.46
60820;BME280;46641;48.904;9.126;2023-03-23T05:52:26;97828.22;;;17.58;46.53
60820;BME280;46641;48.904;9.126;2023-03-23T05:57:17;97826.44;;;17.58;46.52
60820;BME280;46641;48.904;9.126;2023-03-23T06:02:08;97835.97;;;17.59;46.33
60820;BME280;46641;48.904;9.126;2023-03-23T06:07:01;97838.81;;;17.58;46.50
60820;BME280;46641;48.904;9.126;2023-03-23T06:11:52;97847.78;;;17.57;46.54
60820;BME280;46641;48.904;9.126;2023-03-23T06:16:42;97858.28;;;16.85;46.66
60820;BME280;46641;48.904;9.126;2023-03-23T06:21:33;97866.59;;;17.02;46.44
60820;BME280;46641;48.904;9.126;2023-03-23T06:26:28;97871.47;;;17.05;46.17
60820;BME280;46641;48.904;9.126;2023-03-23T06:31:20;97875.28;;;16.56;47.97
60820;BME280;46641;48.904;9.126;2023-03-23T06:36:10;97880.44;;;17.11;46.72
60820;BME280;46641;48.904;9.126;2023-03-23T06:41:02;97889.34;;;17.36;46.36
60820;BME280;46641;48.904;9.126;2023-03-23T06:45:52;97898.06;;;17.50;45.99
60820;BME280;46641;48.904;9.126;2023-03-23T06:50:46;97891.75;;;17.51;46.05
60820;BME280;46641;48.904;9.126;2023-03-23T06:55:36;97892.38;;;17.53;46.15
60820;BME280;46641;48.904;9.126;2023-03-23T07:00:28;97893.41;;;17.52;46.00
60820;BME280;46641;48.904;9.126;2023-03-23T07:05:20;97888.91;;;17.52;45.77
60820;BME280;46641;48.904;9.126;2023-03-23T07:10:11;97902.97;;;17.53;46.06
60820;BME280;46641;48.904;9.126;2023-03-23T07:15:04;97915.16;;;17.54;46.09
60820;BME280;46641;48.904;9.126;2023-03-23T07:19:55;97920.84;;;17.51;46.41
60820;BME280;46641;48.904;9.126;2023-03-23T07:24:46;97935.50;;;17.53;46.41
60820;BME280;46641;48.904;9.126;2023-03-23T07:29:36;97940.00;;;17.53;46.29
60820;BME280;46641;48.904;9.126;2023-03-23T07:34:28;97946.91;;;17.54;46.36
60820;BME280;46641;48.904;9.126;2023-03-23T07:39:19;97959.94;;;17.56;46.49
60820;BME280;46641;48.904;9.126;2023-03-23T07:44:10;97972.16;;;17.57;46.41
60820;BME280;46641;48.904;9.126;2023-03-23T07:49:01;97957.88;;;17.58;46.45
60820;BME280;46641;48.904;9.126;2023-03-23T07:53:55;97964.03;;;17.58;46.67
60820;BME280;46641;48.904;9.126;2023-03-23T07:58:46;97956.69;;;17.60;46.28
60820;BME280;46641;48.904;9.126;2023-03-23T08:03:37;97973.38;;;17.54;47.28
60820;BME280;46641;48.904;9.126;2023-03-23T08:08:27;97978.69;;;17.27;48.34
60820;BME280;46641;48.904;9.126;2023-03-23T08:13:18;97986.38;;;17.16;49.18
60820;BME280;46641;48.904;9.126;2023-03-23T08:18:09;97982.94;;;17.42;48.28
60820;BME280;46641;48.904;9.126;2023-03-23T08:22:59;97987.00;;;17.58;47.65
60820;BME280;46641;48.904;9.126;2023-03-23T08:27:50;97994.53;;;17.67;47.69
60820;BME280;46641;48.904;9.126;2023-03-23T08:32:41;97995.53;;;17.73;47.79
60820;BME280;46641;48.904;9.126;2023-03-23T08:37:31;97989.66;;;17.78;47.74
60820;BME280;46641;48.904;9.126;2023-03-23T08:42:23;97998.22;;;17.80;47.82
60820;BME280;46641;48.904;9.126;2023-03-23T08:47:14;98008.38;;;17.83;47.92
60820;BME280;46641;48.904;9.126;2023-03-23T08:52:04;98008.38;;;17.83;48.03
60820;BME280;46641;48.904;9.126;2023-03-23T08:56:59;98010.00;;;17.84;47.76
60820;BME280;46641;48.904;9.126;2023-03-23T09:01:50;98018.97;;;17.83;47.55
60820;BME280;46641;48.904;9.126;2023-03-23T09:06:40;98006.56;;;17.83;47.64
60820;BME280;46641;48.904;9.126;2023-03-23T09:11:31;98013.69;;;17.83;47.59
60820;BME280;46641;48.904;9.126;2023-03-23T09:16:21;98015.91;;;17.86;47.49
60820;BME280;46641;48.904;9.126;2023-03-23T09:21:11;98020.59;;;17.84;47.49
60820;BME280;46641;48.904;9.126;2023-03-23T09:26:03;98032.44;;;17.88;47.44
60820;BME280;46641;48.904;9.126;2023-03-23T09:30:56;98047.28;;;17.89;47.43
60820;BME280;46641;48.904;9.126;2023-03-23T09:35:47;98051.53;;;17.90;47.53
60820;BME280;46641;48.904;9.126;2023-03-23T09:40:43;98047.91;;;17.91;47.56
60820;BME280;46641;48.904;9.126;2023-03-23T09:45:50;98049.69;;;17.97;48.06
60820;BME280;46641;48.904;9.126;2023-03-23T09:50:45;98043.41;;;17.98;48.09
60820;BME280;46641;48.904;9.126;2023-03-23T09:55:37;98060.50;;;18.02;48.23
60820;BME280;46641;48.904;9.126;2023-03-23T10:00:37;98064.75;;;18.03;48.58
60820;BME280;46641;48.904;9.126;2023-03-23T10:05:36;98061.50;;;18.08;48.27
60820;BME280;46641;48.904;9.126;2023-03-23T10:15:52;98072.69;;;18.10;48.15
60820;BME280;46641;48.904;9.126;2023-03-23T10:20:55;98071.28;;;18.14;48.62
60820;BME280;46641;48.904;9.126;2023-03-23T10:26:02;98083.50;;;18.15;48.71
60820;BME280;46641;48.904;9.126;2023-03-23T10:30:58;98086.97;;;18.15;48.59
60820;BME280;46641;48.904;9.126;2023-03-23T10:35:56;98083.09;;;18.18;48.73
60820;BME280;46641;48.904;9.126;2023-03-23T10:40:55;98084.28;;;18.22;48.11
60820;BME280;46641;48.904;9.126;2023-03-23T10:45:53;98083.06;;;18.25;48.38
60820;BME280;46641;48.904;9.126;2023-03-23T10:50:49;98081.84;;;18.27;48.41
60820;BME280;46641;48.904;9.126;2023-03-23T10:55:41;98077.56;;;18.19;49.87
60820;BME280;46641;48.904;9.126;2023-03-23T11:00:40;98087.00;;;17.82;51.50
60820;BME280;46641;48.904;9.126;2023-03-23T11:05:43;98079.44;;;17.59;51.94
60820;BME280;46641;48.904;9.126;2023-03-23T11:10:39;98071.09;;;17.56;52.33
60820;BME280;46641;48.904;9.126;2023-03-23T11:15:34;98075.75;;;17.60;52.33
60820;BME280;46641;48.904;9.126;2023-03-23T11:20:27;98076.41;;;17.82;51.71
60820;BME280;46641;48.904;9.126;2023-03-23T11:25:19;98059.66;;;18.21;50.52
60820;BME280;46641;48.904;9.126;2023-03-23T11:30:20;98063.84;;;18.42;49.96
60820;BME280;46641;48.904;9.126;2023-03-23T11:35:20;98056.09;;;18.54;49.41
60820;BME280;46641;48.904;9.126;2023-03-23T11:40:20;98048.31;;;18.59;49.55
60820;BME280;46641;48.904;9.126;2023-03-23T11:50:18;98047.50;;;18.65;49.07
60820;BME280;46641;48.904;9.126;2023-03-23T11:55:33;98062.94;;;18.68;49.03
60820;BME280;46641;48.904;9.126;2023-03-23T12:00:26;98056.25;;;18.66;49.62
60820;BME280;46641;48.904;9.126;2023-03-23T12:05:34;98062.78;;;17.79;52.29
60820;BME280;46641;48.904;9.126;2023-03-23T12:26:26;98053.75;;;18.71;49.87
60820;BME280;46641;48.904;9.126;2023-03-23T12:41:52;98038.59;;;18.98;48.75
60820;BME280;46641;48.904;9.126;2023-03-23T12:47:10;98037.31;;;19.01;48.71
60820;BME280;46641;48.904;9.126;2023-03-23T12:52:39;98024.06;;;19.01;48.69
60820;BME280;46641;48.904;9.126;2023-03-23T12:57:38;98018.72;;;19.07;48.41
60820;BME280;46641;48.904;9.126;2023-03-23T13:02:37;98013.00;;;18.79;50.27
60820;BME280;46641;48.904;9.126;2023-03-23T13:07:37;98002.94;;;18.36;51.47
60820;BME280;46641;48.904;9.126;2023-03-23T13:12:32;97999.47;;;18.87;50.14
60820;BME280;46641;48.904;9.126;2023-03-23T13:22:43;97984.31;;;19.26;49.23
60820;BME280;46641;48.904;9.126;2023-03-23T13:27:38;97980.78;;;19.32;48.91
60820;BME280;46641;48.904;9.126;2023-03-23T13:32:37;97980.13;;;19.36;49.07
60820;BME280;46641;48.904;9.126;2023-03-23T13:37:27;97974.41;;;19.39;48.90
60820;BME280;46641;48.904;9.126;2023-03-23T13:42:21;97970.50;;;19.42;48.98
60820;BME280;46641;48.904;9.126;2023-03-23T13:47:38;97962.91;;;19.46;49.09
60820;BME280;46641;48.904;9.126;2023-03-23T13:57:38;97950.81;;;19.50;49.22
60820;BME280;46641;48.904;9.126;2023-03-23T14:02:40;97943.25;;;19.53;49.00
60820;BME280;46641;48.904;9.126;2023-03-23T14:07:31;97938.31;;;19.57;49.09
60820;BME280;46641;48.904;9.126;2023-03-23T14:12:26;97930.13;;;19.58;48.92
60820;BME280;46641;48.904;9.126;2023-03-23T14:17:27;97912.34;;;19.59;49.22
60820;BME280;46641;48.904;9.126;2023-03-23T14:22:38;97914.78;;;19.60;49.14
60820;BME280;46641;48.904;9.126;2023-03-23T14:27:29;97906.59;;;19.62;48.95
60820;BME280;46641;48.904;9.126;2023-03-23T14:32:20;97910.06;;;19.62;48.73
60820;BME280;46641;48.904;9.126;2023-03-23T14:37:16;97923.78;;;19.66;48.79
60820;BME280;46641;48.904;9.126;2023-03-23T14:42:11;97925.59;;;19.66;48.54
60820;BME280;46641;48.904;9.126;2023-03-23T14:47:05;97923.78;;;19.66;48.59
60820;BME280;46641;48.904;9.126;2023-03-23T14:51:56;97926.19;;;19.68;48.52
60820;BME280;46641;48.904;9.126;2023-03-23T14:56:53;97925.38;;;19.67;48.60
60820;BME280;46641;48.904;9.126;2023-03-23T15:01:46;97912.91;;;19.68;48.75
60820;BME280;46641;48.904;9.126;2023-03-23T15:06:38;97922.50;;;19.69;48.35
60820;BME280;46641;48.904;9.126;2023-03-23T15:11:35;97918.59;;;19.71;48.13
60820;BME280;46641;48.904;9.126;2023-03-23T15:16:28;97922.06;;;19.72;48.38
60820;BME280;46641;48.904;9.126;2023-03-23T15:21:36;97920.44;;;19.71;48.14
60820;BME280;46641;48.904;9.126;2023-03-23T15:26:43;97923.09;;;19.71;47.88
60820;BME280;46641;48.904;9.126;2023-03-23T15:31:54;97911.66;;;19.70;48.23
60820;BME280;46641;48.904;9.126;2023-03-23T15:36:45;97901.84;;;19.71;47.97
60820;BME280;46641;48.904;9.126;2023-03-23T15:41:45;97918.38;;;19.73;47.76
60820;BME280;46641;48.904;9.126;2023-03-23T15:46:48;97918.38;;;19.73;47.83
60820;BME280;46641;48.904;9.126;2023-03-23T15:51:38;97906.13;;;19.72;47.72
60820;BME280;46641;48.904;9.126;2023-03-23T15:56:29;97915.72;;;19.73;47.75
60820;BME280;46641;48.904;9.126;2023-03-23T16:01:23;97911.44;;;19.72;47.75
60820;BME280;46641;48.904;9.126;2023-03-23T16:06:16;97909.22;;;19.69;47.92
60820;BME280;46641;48.904;9.126;2023-03-23T16:11:12;97911.88;;;19.69;47.79
60820;BME280;46641;48.904;9.126;2023-03-23T16:16:03;97905.75;;;19.68;47.83
60820;BME280;46641;48.904;9.126;2023-03-23T16:20:54;97908.66;;;19.67;47.79
60820;BME280;46641;48.904;9.126;2023-03-23T16:25:45;97909.09;;;19.64;47.79
60820;BME280;46641;48.904;9.126;2023-03-23T16:30:35;97917.72;;;19.52;48.85
60820;BME280;46641;48.904;9.126;2023-03-23T16:35:25;97924.53;;;18.98;50.70
60820;BME280;46641;48.904;9.126;2023-03-23T16:40:17;97928.91;;;19.36;49.58
60820;BME280;46641;48.904;9.126;2023-03-23T16:45:08;97918.75;;;19.51;48.93
60820;BME280;46641;48.904;9.126;2023-03-23T16:50:01;97918.94;;;19.56;48.53
60820;BME280;46641;48.904;9.126;2023-03-23T16:54:51;97920.53;;;19.57;48.35
60820;BME280;46641;48.904;9.126;2023-03-23T16:59:42;97913.63;;;19.56;48.25
60820;BME280;46641;48.904;9.126;2023-03-23T17:04:33;97914.06;;;19.53;48.03
60820;BME280;46641;48.904;9.126;2023-03-23T17:09:27;97906.66;;;19.55;48.51
60820;BME280;46641;48.904;9.126;2023-03-23T17:14:17;97898.13;;;19.53;48.39
60820;BME280;46641;48.904;9.126;2023-03-23T17:19:07;97901.00;;;19.52;48.30
60820;BME280;46641;48.904;9.126;2023-03-23T17:23:58;97903.88;;;19.50;48.46
60820;BME280;46641;48.904;9.126;2023-03-23T17:28:48;97898.41;;;19.45;48.18
60820;BME280;46641;48.904;9.126;2023-03-23T17:33:38;97901.06;;;19.45;48.39
60820;BME280;46641;48.904;9.126;2023-03-23T17:38:29;97897.81;;;19.43;48.23
60820;BME280;46641;48.904;9.126;2023-03-23T17:43:19;97894.56;;;19.41;48.19
60820;BME280;46641;48.904;9.126;2023-03-23T17:48:10;97901.13;;;19.38;48.17
60820;BME280;46641;48.904;9.126;2023-03-23T17:53:00;97897.06;;;19.36;48.07
60820;BME280;46641;48.904;9.126;2023-03-23T17:57:50;97891.88;;;19.23;48.14
60820;BME280;46641;48.904;9.126;2023-03-23T18:02:41;97898.00;;;19.23;48.30
60820;BME280;46641;48.904;9.126;2023-03-23T18:07:31;97896.97;;;19.24;48.09
60820;BME280;46641;48.904;9.126;2023-03-23T18:12:21;97900.44;;;19.25;47.88
60820;BME280;46641;48.904;9.126;2023-03-23T18:17:12;97905.16;;;19.23;48.13
60820;BME280;46641;48.904;9.126;2023-03-23T18:22:02;97895.78;;;19.20;48.24
60820;BME280;46641;48.904;9.126;2023-03-23T18:26:52;97891.50;;;19.19;48.17
60820;BME280;46641;48.904;9.126;2023-03-23T18:31:43;97882.75;;;19.19;48.04
60820;BME280;46641;48.904;9.126;2023-03-23T18:36:33;97889.09;;;19.18;48.07
60820;BME280;46641;48.904;9.126;2023-03-23T18:41:24;97885.22;;;19.13;48.09
60820;BME280;46641;48.904;9.126;2023-03-23T18:46:14;97886.25;;;19.12;48.26
60820;BME280;46641;48.904;9.126;2023-03-23T18:51:05;97896.88;;;19.12;48.22
60820;BME280;46641;48.904;9.126;2023-03-23T18:56:04;97899.97;;;19.09;48.00
60820;BME280;46641;48.904;9.126;2023-03-23T19:00:56;97901.00;;;19.08;48.15
60820;BME280;46641;48.904;9.126;2023-03-23T19:05:46;97911.81;;;19.07;47.81
60820;BME280;46641;48.904;9.126;2023-03-23T19:10:39;97908.56;;;19.05;48.17
60820;BME280;46641;48.904;9.126;2023-03-23T19:15:30;97910.38;;;19.04;47.93
60820;BME280;46641;48.904;9.126;2023-03-23T19:20:22;97906.94;;;19.04;48.29
60820;BME280;46641;48.904;9.126;2023-03-23T19:25:13;97907.97;;;19.03;48.00
60820;BME280;46641;48.904;9.126;2023-03-23T19:30:05;97906.56;;;19.00;47.84
60820;BME280;46641;48.904;9.126;2023-03-23T19:34:55;97917.16;;;19.00;48.19
60820;BME280;46641;48.904;9.126;2023-03-23T19:39:46;97918.19;;;18.99;48.11
60820;BME280;46641;48.904;9.126;2023-03-23T19:44:36;97921.88;;;18.98;47.93
60820;BME280;46641;48.904;9.126;2023-03-23T19:49:27;97924.31;;;18.30;49.10
60820;BME280;46641;48.904;9.126;2023-03-23T19:54:17;97906.53;;;18.68;48.47
60820;BME280;46641;48.904;9.126;2023-03-23T19:59:09;97900.78;;;18.85;47.96
60820;BME280;46641;48.904;9.126;2023-03-23T20:04:00;97906.03;;;18.91;47.86
60820;BME280;46641;48.904;9.126;2023-03-23T20:08:53;97907.41;;;18.94;47.66
60820;BME280;46641;48.904;9.126;2023-03-23T20:13:45;97904.75;;;18.94;47.75
60820;BME280;46641;48.904;9.126;2023-03-23T20:18:36;97905.00;;;18.92;47.74
60820;BME280;46641;48.904;9.126;2023-03-23T20:23:26;97903.81;;;18.88;47.84
60820;BME280;46641;48.904;9.126;2023-03-23T20:28:17;97898.28;;;18.90;47.82
60820;BME280;46641;48.904;9.126;2023-03-23T20:33:07;97888.72;;;18.89;47.78
60820;BME280;46641;48.904;9.126;2023-03-23T20:37:58;97887.28;;;18.86;47.86
60820;BME280;46641;48.904;9.126;2023-03-23T20:42:49;97875.88;;;18.86;47.92
60820;BME280;46641;48.904;9.126;2023-03-23T20:47:41;97874.03;;;18.86;47.76
60820;BME280;46641;48.904;9.126;2023-03-23T20:52:32;97864.47;;;18.85;47.62
60820;BME280;46641;48.904;9.126;2023-03-23T20:57:22;97878.72;;;18.84;47.85
60820;BME280;46641;48.904;9.126;2023-03-23T21:02:15;97867.75;;;18.81;47.79
60820;BME280;46641;48.904;9.126;2023-03-23T21:07:05;97882.03;;;18.80;48.20
60820;BME280;46641;48.904;9.126;2023-03-23T21:11:55;97880.44;;;18.79;48.11
60820;BME280;46641;48.904;9.126;2023-03-23T21:16:46;97873.47;;;18.78;47.99
60820;BME280;46641;48.904;9.126;2023-03-23T21:21:37;97871.88;;;18.77;47.93
60820;BME280;46641;48.904;9.126;2023-03-23T21:26:31;97872.28;;;18.74;47.82
60820;BME280;46641;48.904;9.126;2023-03-23T21:31:22;97854.94;;;18.71;48.04
60820;BME280;46641;48.904;9.126;2023-03-23T21:36:12;97840.06;;;18.70;48.08
60820;BME280;46641;48.904;9.126;2023-03-23T21:41:11;97832.31;;;18.68;48.07
60820;BME280;46641;48.904;9.126;2023-03-23T21:46:04;97831.50;;;18.68;48.03
60820;BME280;46641;48.904;9.126;2023-03-23T21:50:55;97823.78;;;18.66;48.22
60820;BME280;46641;48.904;9.126;2023-03-23T21:55:47;97819.28;;;18.67;48.15
60820;BME280;46641;48.904;9.126;2023-03-23T22:00:40;97812.38;;;18.66;47.92
60820;BME280;46641;48.904;9.126;2023-03-23T22:05:30;97807.28;;;18.64;48.27
60820;BME280;46641;48.904;9.126;2023-03-23T22:10:21;97795.88;;;18.64;48.24
60820;BME280;46641;48.904;9.126;2023-03-23T22:15:12;97779.38;;;18.62;48.13
60820;BME280;46641;48.904;9.126;2023-03-23T22:20:06;97765.53;;;18.60;48.17
60820;BME280;46641;48.904;9.126;2023-03-23T22:24:57;97759.44;;;18.59;47.80
60820;BME280;46641;48.904;9.126;2023-03-23T22:29:48;97749.03;;;18.58;48.22
60820;BME280;46641;48.904;9.126;2023-03-23T22:34:38;97736.00;;;18.56;48.16
60820;BME280;46641;48.904;9.126;2023-03-23T22:39:28;97734.38;;;18.55;47.87
60820;BME280;46641;48.904;9.126;2023-03-23T22:44:19;97717.88;;;18.53;48.09
60820;BME280;46641;48.904;9.126;2023-03-23T22:49:09;97712.00;;;18.51;48.16
60820;BME280;46641;48.904;9.126;2023-03-23T22:54:00;97732.63;;;18.49;47.96
60820;BME280;46641;48.904;9.126;2023-03-23T22:58:50;97727.31;;;18.49;48.38
60820;BME280;46641;48.904;9.126;2023-03-23T23:03:41;97721.41;;;18.47;48.58
60820;BME280;46641;48.904;9.126;2023-03-23T23:08:31;97728.56;;;18.47;48.40
60820;BME280;46641;48.904;9.126;2023-03-23T23:13:23;97717.56;;;18.43;48.70
60820;BME280;46641;48.904;9.126;2023-03-23T23:18:14;97719.63;;;18.41;48.71
60820;BME280;46641;48.904;9.126;2023-03-23T23:23:05;97717.19;;;18.39;48.83
60820;BME280;46641;48.904;9.126;2023-03-23T23:27:56;97716.59;;;18.37;49.03
60820;BME280;46641;48.904;9.126;2023-03-23T23:32:47;97727.41;;;18.36;48.79
60820;BME280;46641;48.904;9.126;2023-03-23T23:37:41;97730.28;;;18.34;48.54
60820;BME280;46641;48.904;9.126;2023-03-23T23:42:31;97739.25;;;18.33;48.73
60820;BME280;46641;48.904;9.126;2023-03-23T23:47:21;97733.34;;;18.31;48.69
60820;BME280;46641;48.904;9.126;2023-03-23T23:52:12;97734.59;;;18.29;48.53
60820;BME280;46641;48.904;9.126;2023-03-23T23:57:03;97728.72;;;18.27;48.69
